sensor_id;sensor_type;location;lat;lon;timestamp;P1;durP1;ratioP1;P2;durP2;ratioP2
11988;SDS011;6054;50.966;7.094;2022-12-10T04:02:09;23.77;;;14.77;;
11988;SDS011;6054;50.966;7.094;2022-12-10T04:04:36;24.57;;;14.37;;
11988;SDS011;6054;50.966;7.094;2022-12-10T04:07:03;25.57;;;15.10;;
11988;SDS011;6054;50.966;7.094;2022-12-10T04:09:29;27.63;;;14.57;;
11988;SDS011;6054;50.966;7.094;2022-12-10T04:11:56;28.53;;;16.23;;
11988;SDS011;6054;50.966;7.094;2022-12-10T04:14:24;29.93;;;16.30;;
11988;SDS011;6054;50.966;7.094;2022-12-10T04:17:10;28.40;;;16.60;;
11988;SDS011;6054;50.966;7.094;2022-12-10T04:19:37;28.43;;;16.00;;
11988;SDS011;6054;50.966;7.094;2022-12-10T04:22:04;28.87;;;17.27;;
11988;SDS011;6054;50.966;7.094;2022-12-10T04:24:49;28.27;;;16.57;;
11988;SDS011;6054;50.966;7.094;2022-12-10T04:27:33;28.40;;;16.87;;
11988;SDS011;6054;50.966;7.094;2022-12-10T04:30:04;30.43;;;16.00;;
11988;SDS011;6054;50.966;7.094;2022-12-10T04:32:34;30.57;;;16.57;;
11988;SDS011;6054;50.966;7.094;2022-12-10T04:35:00;30.93;;;17.03;;
11988;SDS011;6054;50.966;7.094;2022-12-10T04:37:28;26.57;;;16.00;;
11988;SDS011;6054;50.966;7.094;2022-12-10T04:39:55;31.50;;;17.20;;
11988;SDS011;6054;50.966;7.094;2022-12-10T04:42:22;28.90;;;16.60;;
11988;SDS011;6054;50.966;7.094;2022-12-10T04:44:49;34.50;;;17.43;;
11988;SDS011;6054;50.966;7.094;2022-12-10T04:47:16;32.13;;;17.67;;
11988;SDS011;6054;50.966;7.094;2022-12-10T04:49:44;31.67;;;17.50;;
11988;SDS011;6054;50.966;7.094;2022-12-10T04:52:11;34.90;;;18.27;;
11988;SDS011;6054;50.966;7.094;2022-12-10T04:54:39;33.80;;;18.67;;
11988;SDS011;6054;50.966;7.094;2022-12-10T04:57:07;31.07;;;17.40;;
11988;SDS011;6054;50.966;7.094;2022-12-10T04:59:34;31.37;;;17.90;;
11988;SDS011;6054;50.966;7.094;2022-12-10T05:02:01;33.67;;;18.10;;
11988;SDS011;6054;50.966;7.094;2022-12-10T05:04:28;36.37;;;18.83;;
11988;SDS011;6054;50.966;7.094;2022-12-10T05:06:57;33.83;;;17.60;;
11988;SDS011;6054;50.966;7.094;2022-12-10T05:09:24;30.57;;;17.53;;
11988;SDS011;6054;50.966;7.094;2022-12-10T05:11:51;35.13;;;18.20;;
11988;SDS011;6054;50.966;7.094;2022-12-10T05:14:17;32.73;;;17.03;;
11988;SDS011;6054;50.966;7.094;2022-12-10T05:16:44;37.23;;;17.77;;
11988;SDS011;6054;50.966;7.094;2022-12-10T05:19:11;36.23;;;18.53;;
11988;SDS011;6054;50.966;7.094;2022-12-10T05:21:38;34.53;;;18.13;;
11988;SDS011;6054;50.966;7.094;2022-12-10T05:24:24;32.60;;;17.37;;
11988;SDS011;6054;50.966;7.094;2022-12-10T05:26:51;35.90;;;17.93;;
11988;SDS011;6054;50.966;7.094;2022-12-10T05:29:18;35.53;;;18.27;;
11988;SDS011;6054;50.966;7.094;2022-12-10T05:31:45;33.47;;;17.53;;
11988;SDS011;6054;50.966;7.094;2022-12-10T05:34:12;29.90;;;16.60;;
11988;SDS011;6054;50.966;7.094;2022-12-10T05:36:39;28.23;;;16.17;;
11988;SDS011;6054;50.966;7.094;2022-12-10T05:39:06;36.23;;;18.93;;
11988;SDS011;6054;50.966;7.094;2022-12-10T05:41:36;34.90;;;18.13;;
11988;SDS011;6054;50.966;7.094;2022-12-10T05:44:04;35.20;;;18.17;;
11988;SDS011;6054;50.966;7.094;2022-12-10T05:46:33;33.80;;;18.13;;
11988;SDS011;6054;50.966;7.094;2022-12-10T05:49:00;33.00;;;18.03;;
11988;SDS011;6054;50.966;7.094;2022-12-10T05:51:29;33.20;;;18.70;;
11988;SDS011;6054;50.966;7.094;2022-12-10T05:53:58;34.13;;;18.60;;
11988;SDS011;6054;50.966;7.094;2022-12-10T05:56:26;32.47;;;18.33;;
11988;SDS011;6054;50.966;7.094;2022-12-10T05:58:55;34.00;;;17.67;;
11988;SDS011;6054;50.966;7.094;2022-12-10T06:01:26;37.00;;;18.00;;
11988;SDS011;6054;50.966;7.094;2022-12-10T06:03:54;35.57;;;17.97;;
11988;SDS011;6054;50.966;7.094;2022-12-10T06:06:24;32.57;;;17.77;;
11988;SDS011;6054;50.966;7.094;2022-12-10T06:08:51;29.40;;;16.53;;
11988;SDS011;6054;50.966;7.094;2022-12-10T06:11:19;35.47;;;19.20;;
11988;SDS011;6054;50.966;7.094;2022-12-10T06:13:46;31.73;;;17.87;;
11988;SDS011;6054;50.966;7.094;2022-12-10T06:16:14;33.77;;;18.33;;
11988;SDS011;6054;50.966;7.094;2022-12-10T06:18:41;32.87;;;17.00;;
11988;SDS011;6054;50.966;7.094;2022-12-10T06:21:09;31.03;;;17.43;;
11988;SDS011;6054;50.966;7.094;2022-12-10T06:23:37;35.67;;;18.13;;
11988;SDS011;6054;50.966;7.094;2022-12-10T06:26:05;33.83;;;18.90;;
11988;SDS011;6054;50.966;7.094;2022-12-10T06:28:33;32.17;;;17.77;;
11988;SDS011;6054;50.966;7.094;2022-12-10T06:31:00;31.20;;;17.43;;
11988;SDS011;6054;50.966;7.094;2022-12-10T06:33:28;32.93;;;17.67;;
11988;SDS011;6054;50.966;7.094;2022-12-10T06:35:55;31.53;;;17.00;;
11988;SDS011;6054;50.966;7.094;2022-12-10T06:38:21;31.80;;;17.43;;
11988;SDS011;6054;50.966;7.094;2022-12-10T06:40:48;33.07;;;17.57;;
11988;SDS011;6054;50.966;7.094;2022-12-10T06:43:15;35.00;;;17.77;;
11988;SDS011;6054;50.966;7.094;2022-12-10T06:45:42;32.37;;;17.30;;
11988;SDS011;6054;50.966;7.094;2022-12-10T06:48:09;28.73;;;15.93;;
11988;SDS011;6054;50.966;7.094;2022-12-10T06:50:37;30.10;;;16.97;;
11988;SDS011;6054;50.966;7.094;2022-12-10T06:53:04;31.77;;;16.97;;
11988;SDS011;6054;50.966;7.094;2022-12-10T06:55:30;34.13;;;17.67;;
11988;SDS011;6054;50.966;7.094;2022-12-10T06:57:57;30.27;;;16.70;;
11988;SDS011;6054;50.966;7.094;2022-12-10T07:00:24;31.03;;;17.47;;
11988;SDS011;6054;50.966;7.094;2022-12-10T07:02:51;32.23;;;17.23;;
11988;SDS011;6054;50.966;7.094;2022-12-10T07:05:18;29.13;;;17.17;;
11988;SDS011;6054;50.966;7.094;2022-12-10T07:07:46;29.73;;;16.73;;
11988;SDS011;6054;50.966;7.094;2022-12-10T07:10:13;30.97;;;17.07;;
11988;SDS011;6054;50.966;7.094;2022-12-10T07:12:40;32.30;;;17.10;;
11988;SDS011;6054;50.966;7.094;2022-12-10T07:15:07;31.10;;;16.73;;
11988;SDS011;6054;50.966;7.094;2022-12-10T07:17:34;32.73;;;17.83;;
11988;SDS011;6054;50.966;7.094;2022-12-10T07:20:01;30.53;;;16.60;;
11988;SDS011;6054;50.966;7.094;2022-12-10T07:22:28;32.67;;;17.53;;
11988;SDS011;6054;50.966;7.094;2022-12-10T07:28:27;31.10;;;16.77;;
11988;SDS011;6054;50.966;7.094;2022-12-10T07:30:59;30.73;;;16.80;;
11988;SDS011;6054;50.966;7.094;2022-12-10T07:33:27;30.93;;;17.10;;
11988;SDS011;6054;50.966;7.094;2022-12-10T07:35:54;31.70;;;16.43;;
11988;SDS011;6054;50.966;7.094;2022-12-10T07:38:21;32.00;;;17.50;;
11988;SDS011;6054;50.966;7.094;2022-12-10T07:40:48;27.00;;;16.47;;
11988;SDS011;6054;50.966;7.094;2022-12-10T07:43:15;32.27;;;17.47;;
11988;SDS011;6054;50.966;7.094;2022-12-10T07:45:43;31.00;;;17.17;;
11988;SDS011;6054;50.966;7.094;2022-12-10T07:48:09;27.50;;;16.70;;
11988;SDS011;6054;50.966;7.094;2022-12-10T07:50:36;30.53;;;17.20;;
11988;SDS011;6054;50.966;7.094;2022-12-10T07:53:03;30.17;;;17.23;;
11988;SDS011;6054;50.966;7.094;2022-12-10T07:55:30;29.07;;;17.23;;
11988;SDS011;6054;50.966;7.094;2022-12-10T07:57:56;28.20;;;17.20;;
11988;SDS011;6054;50.966;7.094;2022-12-10T08:00:23;28.87;;;16.93;;
11988;SDS011;6054;50.966;7.094;2022-12-10T08:02:51;28.43;;;16.53;;
11988;SDS011;6054;50.966;7.094;2022-12-10T08:05:18;30.07;;;17.50;;
11988;SDS011;6054;50.966;7.094;2022-12-10T08:07:45;28.77;;;17.27;;
11988;SDS011;6054;50.966;7.094;2022-12-10T08:10:12;27.67;;;16.23;;
11988;SDS011;6054;50.966;7.094;2022-12-10T08:12:38;27.07;;;17.17;;
11988;SDS011;6054;50.966;7.094;2022-12-10T08:15:05;30.80;;;16.87;;
11988;SDS011;6054;50.966;7.094;2022-12-10T08:17:34;29.03;;;16.70;;
11988;SDS011;6054;50.966;7.094;2022-12-10T08:20:02;30.13;;;16.77;;
11988;SDS011;6054;50.966;7.094;2022-12-10T08:22:29;30.17;;;16.73;;
11988;SDS011;6054;50.966;7.094;2022-12-10T08:24:59;29.90;;;16.63;;
11988;SDS011;6054;50.966;7.094;2022-12-10T08:27:26;31.23;;;17.10;;
11988;SDS011;6054;50.966;7.094;2022-12-10T08:29:52;28.73;;;16.80;;
11988;SDS011;6054;50.966;7.094;2022-12-10T08:32:19;30.20;;;18.03;;
11988;SDS011;6054;50.966;7.094;2022-12-10T08:34:46;30.93;;;17.60;;
11988;SDS011;6054;50.966;7.094;2022-12-10T08:37:14;31.60;;;17.53;;
11988;SDS011;6054;50.966;7.094;2022-12-10T08:39:42;31.07;;;17.33;;
11988;SDS011;6054;50.966;7.094;2022-12-10T08:42:09;31.47;;;17.37;;
11988;SDS011;6054;50.966;7.094;2022-12-10T08:44:35;29.03;;;17.57;;
11988;SDS011;6054;50.966;7.094;2022-12-10T08:47:02;27.53;;;16.40;;
11988;SDS011;6054;50.966;7.094;2022-12-10T08:49:29;29.23;;;17.10;;
11988;SDS011;6054;50.966;7.094;2022-12-10T08:51:56;28.60;;;17.47;;
11988;SDS011;6054;50.966;7.094;2022-12-10T08:54:24;30.00;;;17.00;;
11988;SDS011;6054;50.966;7.094;2022-12-10T08:56:51;28.83;;;17.50;;
11988;SDS011;6054;50.966;7.094;2022-12-10T08:59:18;27.73;;;16.33;;
11988;SDS011;6054;50.966;7.094;2022-12-10T09:01:44;31.13;;;17.40;;
11988;SDS011;6054;50.966;7.094;2022-12-10T09:04:11;28.67;;;16.97;;
11988;SDS011;6054;50.966;7.094;2022-12-10T09:06:40;29.90;;;16.83;;
11988;SDS011;6054;50.966;7.094;2022-12-10T09:09:07;28.20;;;17.20;;
11988;SDS011;6054;50.966;7.094;2022-12-10T09:11:35;30.00;;;18.17;;
11988;SDS011;6054;50.966;7.094;2022-12-10T09:14:02;28.97;;;17.23;;
11988;SDS011;6054;50.966;7.094;2022-12-10T09:16:29;30.70;;;17.37;;
11988;SDS011;6054;50.966;7.094;2022-12-10T09:18:59;29.53;;;17.97;;
11988;SDS011;6054;50.966;7.094;2022-12-10T09:21:27;30.10;;;18.20;;
11988;SDS011;6054;50.966;7.094;2022-12-10T09:23:54;32.73;;;17.43;;
11988;SDS011;6054;50.966;7.094;2022-12-10T09:26:21;28.27;;;17.13;;
11988;SDS011;6054;50.966;7.094;2022-12-10T09:28:50;29.53;;;18.40;;
11988;SDS011;6054;50.966;7.094;2022-12-10T09:31:18;32.27;;;19.50;;
11988;SDS011;6054;50.966;7.094;2022-12-10T09:33:46;28.80;;;17.37;;
11988;SDS011;6054;50.966;7.094;2022-12-10T09:36:14;27.63;;;16.80;;
11988;SDS011;6054;50.966;7.094;2022-12-10T09:38:42;30.27;;;17.53;;
11988;SDS011;6054;50.966;7.094;2022-12-10T09:41:18;29.77;;;18.20;;
11988;SDS011;6054;50.966;7.094;2022-12-10T09:44:05;32.03;;;17.80;;
11988;SDS011;6054;50.966;7.094;2022-12-10T09:46:42;29.43;;;17.43;;
11988;SDS011;6054;50.966;7.094;2022-12-10T09:49:16;33.00;;;18.53;;
11988;SDS011;6054;50.966;7.094;2022-12-10T09:51:49;29.60;;;18.93;;
11988;SDS011;6054;50.966;7.094;2022-12-10T09:54:22;31.83;;;19.40;;
11988;SDS011;6054;50.966;7.094;2022-12-10T09:56:51;30.83;;;18.03;;
11988;SDS011;6054;50.966;7.094;2022-12-10T09:59:23;28.10;;;17.27;;
11988;SDS011;6054;50.966;7.094;2022-12-10T10:02:00;26.70;;;17.73;;
11988;SDS011;6054;50.966;7.094;2022-12-10T10:04:37;31.23;;;18.43;;
11988;SDS011;6054;50.966;7.094;2022-12-10T10:07:04;30.97;;;19.07;;
11988;SDS011;6054;50.966;7.094;2022-12-10T10:09:32;30.77;;;18.20;;
11988;SDS011;6054;50.966;7.094;2022-12-10T10:12:08;30.17;;;18.27;;
11988;SDS011;6054;50.966;7.094;2022-12-10T10:14:40;28.07;;;18.17;;
11988;SDS011;6054;50.966;7.094;2022-12-10T10:17:09;30.60;;;18.57;;
11988;SDS011;6054;50.966;7.094;2022-12-10T10:19:40;31.03;;;18.40;;
11988;SDS011;6054;50.966;7.094;2022-12-10T10:22:09;31.07;;;18.70;;
11988;SDS011;6054;50.966;7.094;2022-12-10T10:24:37;31.67;;;19.00;;
11988;SDS011;6054;50.966;7.094;2022-12-10T10:27:11;30.50;;;19.30;;
11988;SDS011;6054;50.966;7.094;2022-12-10T10:29:41;30.27;;;19.90;;
11988;SDS011;6054;50.966;7.094;2022-12-10T10:32:10;30.20;;;18.60;;
11988;SDS011;6054;50.966;7.094;2022-12-10T10:34:40;32.80;;;20.57;;
11988;SDS011;6054;50.966;7.094;2022-12-10T10:37:11;34.00;;;20.33;;
11988;SDS011;6054;50.966;7.094;2022-12-10T10:39:43;32.40;;;19.17;;
11988;SDS011;6054;50.966;7.094;2022-12-10T10:42:18;32.10;;;20.20;;
11988;SDS011;6054;50.966;7.094;2022-12-10T10:44:55;28.57;;;18.83;;
11988;SDS011;6054;50.966;7.094;2022-12-10T10:47:26;34.53;;;20.63;;
11988;SDS011;6054;50.966;7.094;2022-12-10T10:49:55;31.57;;;20.10;;
11988;SDS011;6054;50.966;7.094;2022-12-10T10:52:27;31.53;;;18.90;;
11988;SDS011;6054;50.966;7.094;2022-12-10T10:54:55;32.33;;;19.60;;
11988;SDS011;6054;50.966;7.094;2022-12-10T10:57:23;34.37;;;19.83;;
11988;SDS011;6054;50.966;7.094;2022-12-10T10:59:52;33.33;;;19.83;;
11988;SDS011;6054;50.966;7.094;2022-12-10T11:02:27;32.87;;;20.07;;
11988;SDS011;6054;50.966;7.094;2022-12-10T11:04:57;32.87;;;20.37;;
11988;SDS011;6054;50.966;7.094;2022-12-10T11:07:32;38.17;;;22.63;;
11988;SDS011;6054;50.966;7.094;2022-12-10T11:10:01;37.77;;;22.57;;
11988;SDS011;6054;50.966;7.094;2022-12-10T11:12:33;40.83;;;24.47;;
11988;SDS011;6054;50.966;7.094;2022-12-10T11:15:24;45.33;;;24.07;;
11988;SDS011;6054;50.966;7.094;2022-12-10T11:17:56;38.53;;;23.57;;
11988;SDS011;6054;50.966;7.094;2022-12-10T11:20:24;39.10;;;23.30;;
11988;SDS011;6054;50.966;7.094;2022-12-10T11:22:53;43.30;;;23.30;;
11988;SDS011;6054;50.966;7.094;2022-12-10T11:25:27;43.93;;;24.67;;
11988;SDS011;6054;50.966;7.094;2022-12-10T11:28:06;44.27;;;25.50;;
11988;SDS011;6054;50.966;7.094;2022-12-10T11:30:45;44.23;;;24.33;;
11988;SDS011;6054;50.966;7.094;2022-12-10T11:33:20;45.50;;;24.40;;
11988;SDS011;6054;50.966;7.094;2022-12-10T11:35:56;42.87;;;24.57;;
11988;SDS011;6054;50.966;7.094;2022-12-10T11:38:32;45.70;;;24.27;;
11988;SDS011;6054;50.966;7.094;2022-12-10T11:41:10;45.83;;;25.17;;
11988;SDS011;6054;50.966;7.094;2022-12-10T11:43:51;48.20;;;25.33;;
11988;SDS011;6054;50.966;7.094;2022-12-10T11:46:42;42.77;;;24.00;;
11988;SDS011;6054;50.966;7.094;2022-12-10T11:49:24;40.63;;;23.10;;
11988;SDS011;6054;50.966;7.094;2022-12-10T11:51:57;43.07;;;25.20;;
11988;SDS011;6054;50.966;7.094;2022-12-10T11:54:38;55.07;;;28.63;;
11988;SDS011;6054;50.966;7.094;2022-12-10T11:57:20;52.10;;;28.63;;
11988;SDS011;6054;50.966;7.094;2022-12-10T11:59:55;53.00;;;26.93;;
11988;SDS011;6054;50.966;7.094;2022-12-10T12:02:32;47.80;;;25.57;;
11988;SDS011;6054;50.966;7.094;2022-12-10T12:05:24;53.47;;;26.57;;
11988;SDS011;6054;50.966;7.094;2022-12-10T12:08:03;48.20;;;25.93;;
11988;SDS011;6054;50.966;7.094;2022-12-10T12:10:42;51.00;;;27.23;;
11988;SDS011;6054;50.966;7.094;2022-12-10T12:13:19;52.17;;;26.30;;
11988;SDS011;6054;50.966;7.094;2022-12-10T12:15:51;26.53;;;15.53;;
11988;SDS011;6054;50.966;7.094;2022-12-10T12:18:26;33.87;;;18.03;;
11988;SDS011;6054;50.966;7.094;2022-12-10T12:21:08;33.33;;;18.77;;
11988;SDS011;6054;50.966;7.094;2022-12-10T12:23:37;39.73;;;20.57;;
11988;SDS011;6054;50.966;7.094;2022-12-10T12:26:10;34.60;;;18.27;;
11988;SDS011;6054;50.966;7.094;2022-12-10T12:28:41;32.10;;;18.63;;
11988;SDS011;6054;50.966;7.094;2022-12-10T12:31:13;36.23;;;20.07;;
11988;SDS011;6054;50.966;7.094;2022-12-10T12:33:46;34.93;;;19.93;;
11988;SDS011;6054;50.966;7.094;2022-12-10T12:36:18;31.87;;;18.93;;
11988;SDS011;6054;50.966;7.094;2022-12-10T12:38:52;32.33;;;18.97;;
11988;SDS011;6054;50.966;7.094;2022-12-10T12:41:24;37.67;;;19.87;;
11988;SDS011;6054;50.966;7.094;2022-12-10T12:43:58;34.30;;;19.10;;
11988;SDS011;6054;50.966;7.094;2022-12-10T12:46:32;37.07;;;18.87;;
11988;SDS011;6054;50.966;7.094;2022-12-10T12:49:06;34.27;;;19.80;;
11988;SDS011;6054;50.966;7.094;2022-12-10T12:51:41;36.97;;;19.30;;
11988;SDS011;6054;50.966;7.094;2022-12-10T12:54:13;37.30;;;19.50;;
11988;SDS011;6054;50.966;7.094;2022-12-10T12:56:51;35.33;;;18.30;;
11988;SDS011;6054;50.966;7.094;2022-12-10T12:59:28;31.73;;;19.20;;
11988;SDS011;6054;50.966;7.094;2022-12-10T13:02:03;35.70;;;19.60;;
11988;SDS011;6054;50.966;7.094;2022-12-10T13:04:44;36.30;;;20.87;;
11988;SDS011;6054;50.966;7.094;2022-12-10T13:07:26;35.97;;;20.67;;
11988;SDS011;6054;50.966;7.094;2022-12-10T13:10:07;35.73;;;20.47;;
11988;SDS011;6054;50.966;7.094;2022-12-10T13:12:47;40.43;;;21.37;;
11988;SDS011;6054;50.966;7.094;2022-12-10T13:15:17;39.17;;;21.03;;
11988;SDS011;6054;50.966;7.094;2022-12-10T13:18:02;36.43;;;21.17;;
11988;SDS011;6054;50.966;7.094;2022-12-10T13:20:47;38.90;;;21.50;;
11988;SDS011;6054;50.966;7.094;2022-12-10T13:23:32;34.87;;;19.00;;
11988;SDS011;6054;50.966;7.094;2022-12-10T13:26:01;33.73;;;19.43;;
11988;SDS011;6054;50.966;7.094;2022-12-10T13:28:29;35.80;;;19.57;;
11988;SDS011;6054;50.966;7.094;2022-12-10T13:34:05;35.43;;;19.87;;
11988;SDS011;6054;50.966;7.094;2022-12-10T13:39:45;35.07;;;19.03;;
11988;SDS011;6054;50.966;7.094;2022-12-10T13:42:30;36.63;;;19.57;;
11988;SDS011;6054;50.966;7.094;2022-12-10T13:45:25;33.40;;;19.23;;
11988;SDS011;6054;50.966;7.094;2022-12-10T13:47:54;33.07;;;19.03;;
11988;SDS011;6054;50.966;7.094;2022-12-10T13:50:42;31.97;;;18.47;;
11988;SDS011;6054;50.966;7.094;2022-12-10T13:53:18;35.50;;;19.23;;
11988;SDS011;6054;50.966;7.094;2022-12-10T13:55:53;35.87;;;19.53;;
11988;SDS011;6054;50.966;7.094;2022-12-10T13:58:35;33.57;;;18.50;;
11988;SDS011;6054;50.966;7.094;2022-12-10T14:01:12;30.77;;;18.57;;
11988;SDS011;6054;50.966;7.094;2022-12-10T14:04:03;39.07;;;20.73;;
11988;SDS011;6054;50.966;7.094;2022-12-10T14:06:51;34.77;;;19.90;;
11988;SDS011;6054;50.966;7.094;2022-12-10T14:09:20;38.30;;;21.43;;
11988;SDS011;6054;50.966;7.094;2022-12-10T14:11:52;36.03;;;20.73;;
11988;SDS011;6054;50.966;7.094;2022-12-10T14:14:23;38.53;;;20.13;;
11988;SDS011;6054;50.966;7.094;2022-12-10T14:16:53;34.47;;;20.97;;
11988;SDS011;6054;50.966;7.094;2022-12-10T14:19:20;37.07;;;20.40;;
11988;SDS011;6054;50.966;7.094;2022-12-10T14:21:52;37.00;;;21.57;;
11988;SDS011;6054;50.966;7.094;2022-12-10T14:24:28;39.83;;;23.00;;
11988;SDS011;6054;50.966;7.094;2022-12-10T14:26:57;43.67;;;23.13;;
11988;SDS011;6054;50.966;7.094;2022-12-10T14:29:26;39.97;;;22.50;;
11988;SDS011;6054;50.966;7.094;2022-12-10T14:31:54;41.07;;;21.57;;
11988;SDS011;6054;50.966;7.094;2022-12-10T14:34:22;45.60;;;23.83;;
11988;SDS011;6054;50.966;7.094;2022-12-10T14:36:52;37.57;;;20.60;;
11988;SDS011;6054;50.966;7.094;2022-12-10T14:39:22;42.30;;;22.20;;
11988;SDS011;6054;50.966;7.094;2022-12-10T14:41:55;39.33;;;21.00;;
11988;SDS011;6054;50.966;7.094;2022-12-10T14:44:25;35.67;;;20.87;;
11988;SDS011;6054;50.966;7.094;2022-12-10T14:46:52;37.20;;;20.70;;
11988;SDS011;6054;50.966;7.094;2022-12-10T14:49:29;34.37;;;20.90;;
11988;SDS011;6054;50.966;7.094;2022-12-10T14:51:56;38.07;;;20.20;;
11988;SDS011;6054;50.966;7.094;2022-12-10T14:54:24;36.23;;;20.47;;
11988;SDS011;6054;50.966;7.094;2022-12-10T14:56:54;35.77;;;21.50;;
11988;SDS011;6054;50.966;7.094;2022-12-10T14:59:23;35.57;;;20.30;;
11988;SDS011;6054;50.966;7.094;2022-12-10T15:01:58;35.10;;;19.97;;
11988;SDS011;6054;50.966;7.094;2022-12-10T15:04:30;36.20;;;21.97;;
11988;SDS011;6054;50.966;7.094;2022-12-10T15:07:07;33.00;;;20.03;;
11988;SDS011;6054;50.966;7.094;2022-12-10T15:09:39;37.67;;;21.00;;
11988;SDS011;6054;50.966;7.094;2022-12-10T15:12:18;33.67;;;20.37;;
11988;SDS011;6054;50.966;7.094;2022-12-10T15:14:57;34.23;;;20.30;;
11988;SDS011;6054;50.966;7.094;2022-12-10T15:17:39;34.90;;;20.07;;
11988;SDS011;6054;50.966;7.094;2022-12-10T15:20:20;37.60;;;20.23;;
11988;SDS011;6054;50.966;7.094;2022-12-10T15:22:49;38.93;;;22.03;;
11988;SDS011;6054;50.966;7.094;2022-12-10T15:25:23;43.13;;;22.10;;
11988;SDS011;6054;50.966;7.094;2022-12-10T15:27:54;40.63;;;22.97;;
11988;SDS011;6054;50.966;7.094;2022-12-10T15:30:23;45.53;;;25.30;;
11988;SDS011;6054;50.966;7.094;2022-12-10T15:32:57;48.00;;;23.57;;
11988;SDS011;6054;50.966;7.094;2022-12-10T15:35:24;43.17;;;23.43;;
11988;SDS011;6054;50.966;7.094;2022-12-10T15:37:52;42.77;;;24.03;;
11988;SDS011;6054;50.966;7.094;2022-12-10T15:40:22;47.40;;;24.63;;
11988;SDS011;6054;50.966;7.094;2022-12-10T15:42:51;43.37;;;24.60;;
11988;SDS011;6054;50.966;7.094;2022-12-10T15:45:23;40.90;;;23.43;;
11988;SDS011;6054;50.966;7.094;2022-12-10T15:47:51;44.87;;;22.47;;
11988;SDS011;6054;50.966;7.094;2022-12-10T15:50:19;38.47;;;21.60;;
11988;SDS011;6054;50.966;7.094;2022-12-10T15:52:47;35.43;;;21.07;;
11988;SDS011;6054;50.966;7.094;2022-12-10T15:55:14;37.07;;;20.37;;
11988;SDS011;6054;50.966;7.094;2022-12-10T15:57:43;38.53;;;20.07;;
11988;SDS011;6054;50.966;7.094;2022-12-10T16:02:48;35.10;;;20.90;;
11988;SDS011;6054;50.966;7.094;2022-12-10T16:05:18;32.57;;;20.23;;
11988;SDS011;6054;50.966;7.094;2022-12-10T16:07:48;32.17;;;19.50;;
11988;SDS011;6054;50.966;7.094;2022-12-10T16:10:17;29.73;;;19.07;;
11988;SDS011;6054;50.966;7.094;2022-12-10T16:12:47;36.83;;;22.67;;
11988;SDS011;6054;50.966;7.094;2022-12-10T16:15:16;40.70;;;25.73;;
11988;SDS011;6054;50.966;7.094;2022-12-10T16:17:45;39.00;;;22.53;;
11988;SDS011;6054;50.966;7.094;2022-12-10T16:20:20;32.87;;;20.33;;
11988;SDS011;6054;50.966;7.094;2022-12-10T16:22:50;32.87;;;19.33;;
11988;SDS011;6054;50.966;7.094;2022-12-10T16:25:17;30.03;;;18.53;;
11988;SDS011;6054;50.966;7.094;2022-12-10T16:27:44;35.53;;;21.00;;
11988;SDS011;6054;50.966;7.094;2022-12-10T16:30:12;34.30;;;20.27;;
11988;SDS011;6054;50.966;7.094;2022-12-10T16:32:42;35.60;;;20.27;;
11988;SDS011;6054;50.966;7.094;2022-12-10T16:35:09;33.47;;;19.30;;
11988;SDS011;6054;50.966;7.094;2022-12-10T16:37:40;32.93;;;18.60;;
11988;SDS011;6054;50.966;7.094;2022-12-10T16:40:08;33.33;;;19.70;;
11988;SDS011;6054;50.966;7.094;2022-12-10T16:42:35;31.47;;;20.20;;
11988;SDS011;6054;50.966;7.094;2022-12-10T16:45:05;33.33;;;19.90;;
11988;SDS011;6054;50.966;7.094;2022-12-10T16:47:38;31.67;;;20.23;;
11988;SDS011;6054;50.966;7.094;2022-12-10T16:50:05;35.10;;;19.83;;
11988;SDS011;6054;50.966;7.094;2022-12-10T16:52:32;32.63;;;20.40;;
11988;SDS011;6054;50.966;7.094;2022-12-10T16:55:00;32.67;;;18.77;;
11988;SDS011;6054;50.966;7.094;2022-12-10T16:57:27;34.00;;;20.23;;
11988;SDS011;6054;50.966;7.094;2022-12-10T16:59:54;38.13;;;21.20;;
11988;SDS011;6054;50.966;7.094;2022-12-10T17:02:21;31.87;;;19.40;;
11988;SDS011;6054;50.966;7.094;2022-12-10T17:04:48;31.10;;;19.13;;
11988;SDS011;6054;50.966;7.094;2022-12-10T17:07:14;33.87;;;20.07;;
11988;SDS011;6054;50.966;7.094;2022-12-10T17:09:41;36.30;;;19.17;;
11988;SDS011;6054;50.966;7.094;2022-12-10T17:12:09;31.37;;;18.50;;
11988;SDS011;6054;50.966;7.094;2022-12-10T17:14:37;32.73;;;19.47;;
11988;SDS011;6054;50.966;7.094;2022-12-10T17:17:06;32.87;;;19.27;;
11988;SDS011;6054;50.966;7.094;2022-12-10T17:19:34;30.30;;;18.97;;
11988;SDS011;6054;50.966;7.094;2022-12-10T17:22:02;30.13;;;19.30;;
11988;SDS011;6054;50.966;7.094;2022-12-10T17:24:30;32.07;;;18.73;;
11988;SDS011;6054;50.966;7.094;2022-12-10T17:26:58;33.50;;;20.07;;
11988;SDS011;6054;50.966;7.094;2022-12-10T17:29:30;31.20;;;19.53;;
11988;SDS011;6054;50.966;7.094;2022-12-10T17:32:00;34.90;;;19.07;;
11988;SDS011;6054;50.966;7.094;2022-12-10T17:34:27;32.60;;;19.87;;
11988;SDS011;6054;50.966;7.094;2022-12-10T17:36:54;28.90;;;18.73;;
11988;SDS011;6054;50.966;7.094;2022-12-10T17:39:21;31.73;;;19.43;;
11988;SDS011;6054;50.966;7.094;2022-12-10T17:41:50;31.37;;;19.00;;
11988;SDS011;6054;50.966;7.094;2022-12-10T17:44:17;32.27;;;17.83;;
11988;SDS011;6054;50.966;7.094;2022-12-10T17:46:45;27.97;;;18.07;;
11988;SDS011;6054;50.966;7.094;2022-12-10T17:49:12;30.57;;;17.80;;
11988;SDS011;6054;50.966;7.094;2022-12-10T17:51:40;30.13;;;17.17;;
11988;SDS011;6054;50.966;7.094;2022-12-10T17:54:07;30.83;;;18.80;;
11988;SDS011;6054;50.966;7.094;2022-12-10T17:56:34;32.20;;;18.20;;
11988;SDS011;6054;50.966;7.094;2022-12-10T17:59:01;30.43;;;18.57;;
11988;SDS011;6054;50.966;7.094;2022-12-10T18:01:28;32.13;;;18.90;;
11988;SDS011;6054;50.966;7.094;2022-12-10T18:03:56;29.97;;;18.07;;
11988;SDS011;6054;50.966;7.094;2022-12-10T18:06:24;29.33;;;17.27;;
11988;SDS011;6054;50.966;7.094;2022-12-10T18:08:52;26.90;;;17.27;;
11988;SDS011;6054;50.966;7.094;2022-12-10T18:11:22;32.03;;;18.67;;
11988;SDS011;6054;50.966;7.094;2022-12-10T18:13:50;30.90;;;18.23;;
11988;SDS011;6054;50.966;7.094;2022-12-10T18:16:17;29.53;;;18.30;;
11988;SDS011;6054;50.966;7.094;2022-12-10T18:18:45;31.20;;;18.40;;
11988;SDS011;6054;50.966;7.094;2022-12-10T18:21:14;28.70;;;18.53;;
11988;SDS011;6054;50.966;7.094;2022-12-10T18:23:43;30.93;;;17.87;;
11988;SDS011;6054;50.966;7.094;2022-12-10T18:26:10;30.87;;;19.07;;
11988;SDS011;6054;50.966;7.094;2022-12-10T18:28:43;30.97;;;19.27;;
11988;SDS011;6054;50.966;7.094;2022-12-10T18:31:13;30.83;;;19.53;;
11988;SDS011;6054;50.966;7.094;2022-12-10T18:33:44;34.30;;;19.70;;
11988;SDS011;6054;50.966;7.094;2022-12-10T18:36:15;35.10;;;20.17;;
11988;SDS011;6054;50.966;7.094;2022-12-10T18:38:43;33.97;;;20.47;;
11988;SDS011;6054;50.966;7.094;2022-12-10T18:41:11;33.90;;;20.00;;
11988;SDS011;6054;50.966;7.094;2022-12-10T18:43:39;36.63;;;20.90;;
11988;SDS011;6054;50.966;7.094;2022-12-10T18:46:08;30.70;;;20.70;;
11988;SDS011;6054;50.966;7.094;2022-12-10T18:48:38;34.00;;;21.33;;
11988;SDS011;6054;50.966;7.094;2022-12-10T18:51:05;34.57;;;21.10;;
11988;SDS011;6054;50.966;7.094;2022-12-10T18:53:33;35.60;;;21.33;;
11988;SDS011;6054;50.966;7.094;2022-12-10T18:56:00;37.90;;;22.57;;
11988;SDS011;6054;50.966;7.094;2022-12-10T18:58:27;36.13;;;21.63;;
11988;SDS011;6054;50.966;7.094;2022-12-10T19:00:54;35.83;;;21.60;;
11988;SDS011;6054;50.966;7.094;2022-12-10T19:03:20;35.40;;;21.10;;
11988;SDS011;6054;50.966;7.094;2022-12-10T19:05:47;38.00;;;21.17;;